createdAt,value
2023-05-20T00:02:20.095Z,87.14
2023-05-20T00:06:37.912Z,87.16
2023-05-20T00:10:56.547Z,87.24
2023-05-20T00:15:14.759Z,87.28
2023-05-20T00:19:32.249Z,87.33
2023-05-20T00:23:50.887Z,87.33
2023-05-20T00:28:08.872Z,87.36
2023-05-20T00:32:27.220Z,87.51
2023-05-20T00:36:45.001Z,87.46
2023-05-20T00:41:03.345Z,87.51
2023-05-20T00:45:21.021Z,87.65
2023-05-20T00:49:38.715Z,87.78
2023-05-20T00:53:57.129Z,87.82
2023-05-20T00:58:14.897Z,87.83
2023-05-20T01:02:33.227Z,87.82
2023-05-20T01:06:51.037Z,87.79
2023-05-20T01:11:17.307Z,87.70
2023-05-20T01:15:36.199Z,87.62
2023-05-20T01:19:56.467Z,87.79
2023-05-20T01:24:14.813Z,87.88
2023-05-20T01:28:39.533Z,87.89
2023-05-20T01:33:11.941Z,88.02
2023-05-20T01:37:31.616Z,88.09
2023-05-20T01:41:51.652Z,88.28
2023-05-20T01:46:09.385Z,88.29
2023-05-20T01:50:27.479Z,88.28
2023-05-20T01:54:51.630Z,88.36
2023-05-20T01:59:09.623Z,88.33
2023-05-20T02:03:29.864Z,88.36
2023-05-20T02:07:47.440Z,88.37
2023-05-20T02:12:05.699Z,88.40
2023-05-20T02:16:24.145Z,88.41
2023-05-20T02:20:42.876Z,88.39
2023-05-20T02:25:01.200Z,88.52
2023-05-20T02:29:22.754Z,88.42
2023-05-20T02:33:40.410Z,88.41
2023-05-20T02:37:58.748Z,88.36
2023-05-20T02:42:16.776Z,88.36
2023-05-20T02:46:34.598Z,88.41
2023-05-20T02:50:54.576Z,88.38
2023-05-20T02:55:12.556Z,88.38
2023-05-20T02:59:30.754Z,88.28
2023-05-20T03:03:48.602Z,88.31
2023-05-20T03:08:12.707Z,88.27
2023-05-20T03:12:31.402Z,88.37
2023-05-20T03:16:50.684Z,88.43
2023-05-20T03:21:10.009Z,88.47
2023-05-20T03:25:27.920Z,88.36
2023-05-20T03:29:48.464Z,88.36
2023-05-20T03:34:07.168Z,88.36
2023-05-20T03:38:25.767Z,88.19
2023-05-20T03:42:43.450Z,88.11
2023-05-20T03:47:01.314Z,87.97
2023-05-20T03:51:19.599Z,87.81
2023-05-20T03:55:37.136Z,87.81
2023-05-20T03:59:55.178Z,87.29
2023-05-20T04:04:12.838Z,86.98
2023-05-20T04:08:31.216Z,87.00
2023-05-20T04:12:50.264Z,86.46
2023-05-20T04:17:08.680Z,86.22
2023-05-20T04:21:26.353Z,85.88
2023-05-20T04:25:44.936Z,85.28
2023-05-20T04:30:02.788Z,85.12
2023-05-20T04:34:27.035Z,84.39
2023-05-20T04:38:45.499Z,84.48
2023-05-20T04:43:04.189Z,84.41
2023-05-20T04:47:22.402Z,84.51
2023-05-20T04:51:40.045Z,84.62
2023-05-20T04:55:58.038Z,84.54
2023-05-20T05:00:16.254Z,84.39
2023-05-20T05:04:34.749Z,84.45
2023-05-20T05:08:53.002Z,84.28
2023-05-20T05:13:10.406Z,83.89
2023-05-20T05:17:29.661Z,83.59
2023-05-20T05:21:49.948Z,83.30
2023-05-20T05:26:07.936Z,82.11
2023-05-20T05:30:26.566Z,81.45
2023-05-20T05:34:46.225Z,80.33
2023-05-20T05:39:05.614Z,80.15
2023-05-20T05:43:23.125Z,79.15
2023-05-20T05:47:41.672Z,78.69
2023-05-20T05:51:59.331Z,78.76
2023-05-20T05:56:18.192Z,79.09
2023-05-20T06:00:36.152Z,78.94
2023-05-20T06:04:54.161Z,78.43
2023-05-20T06:09:12.721Z,77.72
2023-05-20T06:13:30.874Z,76.64
2023-05-20T06:17:48.509Z,77.62
2023-05-20T06:22:06.554Z,77.11
2023-05-20T06:26:24.257Z,75.95
2023-05-20T06:30:42.534Z,76.16
2023-05-20T06:35:01.003Z,74.71
2023-05-20T06:39:20.806Z,74.72
2023-05-20T06:43:38.416Z,74.34
2023-05-20T06:47:56.668Z,73.58
2023-05-20T06:52:14.400Z,71.87
2023-05-20T06:56:32.597Z,71.41
2023-05-20T07:00:50.620Z,71.07
2023-05-20T07:05:08.930Z,72.56
2023-05-20T07:09:27.447Z,71.81
2023-05-20T07:13:45.036Z,71.16
2023-05-20T07:18:03.698Z,72.21
2023-05-20T07:22:21.322Z,71.94
2023-05-20T07:26:39.818Z,70.89
2023-05-20T07:30:59.100Z,71.66
2023-05-20T07:35:17.038Z,69.88
2023-05-20T07:39:35.344Z,70.31
2023-05-20T07:43:58.445Z,70.53
2023-05-20T07:48:16.079Z,69.78
2023-05-20T07:52:43.944Z,70.38
2023-05-20T07:57:12.542Z,72.07
2023-05-20T08:01:30.435Z,70.52
2023-05-20T08:05:48.145Z,70.66
2023-05-20T08:10:07.785Z,73.07
2023-05-20T08:14:26.073Z,73.42
2023-05-20T08:18:43.638Z,72.36
2023-05-20T08:23:02.284Z,71.83
2023-05-20T08:27:19.835Z,71.16
2023-05-20T08:31:38.613Z,70.34
2023-05-20T08:35:56.649Z,70.21
2023-05-20T08:40:15.366Z,70.88
2023-05-20T08:44:34.566Z,69.92
2023-05-20T08:48:52.362Z,70.52
2023-05-20T08:53:11.787Z,70.05
2023-05-20T08:57:30.277Z,71.04
2023-05-20T09:01:47.899Z,69.85
2023-05-20T09:06:07.692Z,68.17
2023-05-20T09:10:27.450Z,66.78
2023-05-20T09:14:45.275Z,68.68
2023-05-20T09:19:06.970Z,66.81
2023-05-20T09:23:29.976Z,66.61
2023-05-20T09:27:48.164Z,65.58
2023-05-20T09:32:06.024Z,66.49
2023-05-20T09:36:33.146Z,66.98
2023-05-20T09:40:51.236Z,65.60
2023-05-20T09:45:12.064Z,64.45
2023-05-20T09:49:32.498Z,65.51
2023-05-20T09:53:52.041Z,65.39
2023-05-20T09:58:16.130Z,61.98
2023-05-20T10:02:37.120Z,63.32
2023-05-20T10:07:38.014Z,64.13
2023-05-20T10:12:15.355Z,63.69
2023-05-20T10:16:59.086Z,65.89
2023-05-20T10:21:20.175Z,65.90
2023-05-20T10:25:37.752Z,65.10
2023-05-20T10:29:59.050Z,64.25
2023-05-20T10:34:20.608Z,63.96
2023-05-20T10:38:53.518Z,61.89
2023-05-20T10:43:14.038Z,63.01
2023-05-20T10:47:32.591Z,62.68
2023-05-20T10:51:53.212Z,62.44
2023-05-20T10:56:27.280Z,60.87
2023-05-20T11:00:46.022Z,63.17
2023-05-20T11:05:04.992Z,62.62
2023-05-20T11:09:23.582Z,61.65
2023-05-20T11:13:41.734Z,63.51
2023-05-20T11:18:03.170Z,61.62
2023-05-20T11:22:22.415Z,59.06
2023-05-20T11:26:42.886Z,59.08
2023-05-20T11:31:01.385Z,54.30
2023-05-20T11:35:26.846Z,55.18
2023-05-20T11:39:45.192Z,54.33
2023-05-20T11:44:04.195Z,55.30
2023-05-20T11:48:21.971Z,53.25
2023-05-20T11:52:40.018Z,46.33
2023-05-20T11:56:57.549Z,46.28
2023-05-20T12:01:22.387Z,46.17
2023-05-20T12:05:41.089Z,38.42
2023-05-20T12:10:00.231Z,46.39
2023-05-20T12:14:18.573Z,53.28
2023-05-20T12:18:37.538Z,38.83
2023-05-20T12:22:55.124Z,37.00
2023-05-20T12:27:13.213Z,31.68
2023-05-20T12:31:34.686Z,31.32
2023-05-20T12:35:52.846Z,27.51
2023-05-20T12:40:12.967Z,25.79
2023-05-20T12:44:32.125Z,26.90
2023-05-20T12:48:49.822Z,25.83
2023-05-20T12:53:09.458Z,27.69
2023-05-20T12:57:27.327Z,24.01
2023-05-20T13:01:45.103Z,28.33
2023-05-20T13:06:03.224Z,26.84
2023-05-20T13:10:20.922Z,28.66
2023-05-20T13:14:39.319Z,25.35
2023-05-20T13:18:57.744Z,25.65
2023-05-20T13:23:15.479Z,25.94
2023-05-20T13:27:33.115Z,25.20
2023-05-20T13:31:50.038Z,25.26
2023-05-20T13:36:08.428Z,23.93
2023-05-20T13:40:26.019Z,27.22
2023-05-20T13:44:43.966Z,25.85
2023-05-20T13:49:03.298Z,25.48
2023-05-20T13:53:20.819Z,24.08
2023-05-20T13:57:39.877Z,21.58
2023-05-20T14:01:57.497Z,22.62
2023-05-20T14:06:19.072Z,23.58
2023-05-20T14:10:36.880Z,23.74
2023-05-20T14:14:55.308Z,25.55
2023-05-20T14:19:12.914Z,22.07
2023-05-20T14:23:31.856Z,21.27
2023-05-20T14:27:50.681Z,22.97
2023-05-20T14:32:09.385Z,23.31
2023-05-20T14:36:28.026Z,22.51
2023-05-20T14:40:46.049Z,22.66
2023-05-20T14:45:05.931Z,21.38
2023-05-20T14:49:24.326Z,22.68
2023-05-20T14:53:42.410Z,23.44
2023-05-20T14:58:00.941Z,22.80
2023-05-20T15:02:19.903Z,23.49
2023-05-20T15:06:38.617Z,22.88
2023-05-20T15:10:56.787Z,21.44
2023-05-20T15:15:15.481Z,20.19
2023-05-20T15:19:33.282Z,23.41
2023-05-20T15:23:51.516Z,24.30
2023-05-20T15:28:09.932Z,21.94
2023-05-20T15:32:27.712Z,24.02
2023-05-20T15:36:45.763Z,25.74
2023-05-20T15:41:04.970Z,25.30
2023-05-20T15:45:22.995Z,23.33
2023-05-20T15:49:41.272Z,23.87
2023-05-20T15:53:58.938Z,25.03
2023-05-20T15:58:16.974Z,26.57
2023-05-20T16:02:36.530Z,25.54
2023-05-20T16:06:55.152Z,26.37
2023-05-20T16:11:12.762Z,26.69
2023-05-20T16:15:37.038Z,28.94
2023-05-20T16:19:55.208Z,29.93
2023-05-20T16:24:12.863Z,29.51
2023-05-20T16:28:31.765Z,30.41
2023-05-20T16:32:50.594Z,33.13
2023-05-20T16:37:08.248Z,36.30
2023-05-20T16:41:26.926Z,35.73
2023-05-20T16:45:45.016Z,34.90
2023-05-20T16:50:05.084Z,35.71
2023-05-20T16:54:22.653Z,39.52
2023-05-20T16:58:40.835Z,39.97
2023-05-20T17:02:58.558Z,40.15
2023-05-20T17:07:16.717Z,42.41
2023-05-20T17:11:35.628Z,42.32
2023-05-20T17:15:53.373Z,45.05
2023-05-20T17:20:12.133Z,45.86
2023-05-20T17:24:35.051Z,52.09
2023-05-20T17:28:53.700Z,56.83
2023-05-20T17:33:13.632Z,63.63
2023-05-20T17:37:31.659Z,67.03
2023-05-20T17:41:50.261Z,69.30
2023-05-20T17:46:08.267Z,70.05
2023-05-20T17:50:26.079Z,71.58
2023-05-20T17:54:45.080Z,71.98
2023-05-20T17:59:03.199Z,71.62
2023-05-20T18:03:24.287Z,70.34
2023-05-20T18:07:41.922Z,69.65
2023-05-20T18:11:59.776Z,69.06
2023-05-20T18:16:17.557Z,68.81
2023-05-20T18:20:35.276Z,69.36
2023-05-20T18:24:53.693Z,69.89
2023-05-20T18:29:12.550Z,70.18
2023-05-20T18:33:31.686Z,70.44
2023-05-20T18:37:50.038Z,70.96
2023-05-20T18:42:07.538Z,71.31
2023-05-20T18:46:27.440Z,71.96
2023-05-20T18:50:44.977Z,72.57
2023-05-20T18:55:02.653Z,73.61
2023-05-20T18:59:21.912Z,73.74
2023-05-20T19:03:44.313Z,74.08
2023-05-20T19:08:06.221Z,74.09
2023-05-20T19:12:24.908Z,74.54
2023-05-20T19:16:44.148Z,74.92
2023-05-20T19:21:03.037Z,75.29
2023-05-20T19:25:21.794Z,75.89
2023-05-20T19:29:39.594Z,76.10
2023-05-20T19:33:57.224Z,76.42
2023-05-20T19:38:14.888Z,76.73
2023-05-20T19:42:33.571Z,76.91
2023-05-20T19:46:53.191Z,77.72
2023-05-20T19:51:11.186Z,77.69
2023-05-20T19:55:28.715Z,77.96
2023-05-20T19:59:51.686Z,77.98
2023-05-20T20:04:11.212Z,78.39
2023-05-20T20:08:30.724Z,78.75
2023-05-20T20:12:48.938Z,79.49
2023-05-20T20:17:07.016Z,79.50
2023-05-20T20:21:26.832Z,79.59
2023-05-20T20:25:48.201Z,80.29
2023-05-20T20:30:09.020Z,80.58
2023-05-20T20:34:26.676Z,80.51
2023-05-20T20:38:47.392Z,80.74
2023-05-20T20:43:20.906Z,81.62
2023-05-20T20:47:41.328Z,81.80
2023-05-20T20:52:01.775Z,81.90
2023-05-20T20:56:19.999Z,81.99
2023-05-20T21:00:40.885Z,82.07
2023-05-20T21:04:59.457Z,81.81
2023-05-20T21:09:18.116Z,81.91
2023-05-20T21:13:36.769Z,82.02
2023-05-20T21:17:55.763Z,82.28
2023-05-20T21:22:13.289Z,82.87
2023-05-20T21:26:30.892Z,82.68
2023-05-20T21:30:53.610Z,83.29
2023-05-20T21:35:12.094Z,82.91
2023-05-20T21:39:34.230Z,83.47
2023-05-20T21:43:52.827Z,83.75
2023-05-20T21:48:11.391Z,83.82
2023-05-20T21:52:30.269Z,84.28
2023-05-20T21:56:48.420Z,84.41
2023-05-20T22:01:06.256Z,84.28
2023-05-20T22:05:24.759Z,84.40
2023-05-20T22:09:42.370Z,84.90
2023-05-20T22:14:00.449Z,85.57
2023-05-20T22:18:19.128Z,86.08
2023-05-20T22:22:40.474Z,85.86
2023-05-20T22:26:58.494Z,86.08
2023-05-20T22:31:16.043Z,86.20
2023-05-20T22:35:33.968Z,86.54
2023-05-20T22:39:51.603Z,87.26
2023-05-20T22:44:10.239Z,87.32
2023-05-20T22:48:28.781Z,87.07
2023-05-20T22:52:46.442Z,87.07
2023-05-20T22:57:05.682Z,87.63
2023-05-20T23:01:24.437Z,88.04
2023-05-20T23:05:42.786Z,88.22
2023-05-20T23:10:00.370Z,88.23
2023-05-20T23:14:21.185Z,88.27
2023-05-20T23:18:38.756Z,88.32
2023-05-20T23:22:57.455Z,88.40
2023-05-20T23:27:15.940Z,88.26
2023-05-20T23:31:35.030Z,87.72
2023-05-20T23:35:53.078Z,86.97
2023-05-20T23:40:10.640Z,86.27
2023-05-20T23:44:28.716Z,85.70
2023-05-20T23:48:50.574Z,85.16
2023-05-20T23:53:08.498Z,84.76
2023-05-20T23:57:26.194Z,83.92
